sensor_id;sensor_type;location;lat;lon;timestamp;temperature;humidity
15113;DHT22;7657;50.140;7.076;2023-01-29T00:00:21;2.20;99.90
15113;DHT22;7657;50.140;7.076;2023-01-29T00:02:48;2.30;99.90
15113;DHT22;7657;50.140;7.076;2023-01-29T00:05:15;2.10;99.90
15113;DHT22;7657;50.140;7.076;2023-01-29T00:07:43;2.00;99.90
15113;DHT22;7657;50.140;7.076;2023-01-29T00:10:10;2.00;99.90
15113;DHT22;7657;50.140;7.076;2023-01-29T00:12:38;1.90;99.90
15113;DHT22;7657;50.140;7.076;2023-01-29T00:15:05;1.80;99.90
15113;DHT22;7657;50.140;7.076;2023-01-29T00:17:32;1.50;99.90
15113;DHT22;7657;50.140;7.076;2023-01-29T00:19:59;1.60;99.90
15113;DHT22;7657;50.140;7.076;2023-01-29T00:22:26;1.70;99.90
15113;DHT22;7657;50.140;7.076;2023-01-29T00:24:56;1.80;99.90
15113;DHT22;7657;50.140;7.076;2023-01-29T00:27:23;1.70;99.90
15113;DHT22;7657;50.140;7.076;2023-01-29T00:29:50;1.70;99.90
15113;DHT22;7657;50.140;7.076;2023-01-29T00:32:36;1.70;99.90
15113;DHT22;7657;50.140;7.076;2023-01-29T00:35:03;1.70;99.90
15113;DHT22;7657;50.140;7.076;2023-01-29T00:37:30;1.70;99.90
15113;DHT22;7657;50.140;7.076;2023-01-29T00:39:59;1.50;99.90
15113;DHT22;7657;50.140;7.076;2023-01-29T00:42:26;1.50;99.90
15113;DHT22;7657;50.140;7.076;2023-01-29T00:45:11;1.50;99.90
15113;DHT22;7657;50.140;7.076;2023-01-29T00:47:38;1.60;99.90
15113;DHT22;7657;50.140;7.076;2023-01-29T00:50:07;1.70;99.90
15113;DHT22;7657;50.140;7.076;2023-01-29T00:52:34;1.80;99.90
15113;DHT22;7657;50.140;7.076;2023-01-29T00:55:04;1.80;99.90
15113;DHT22;7657;50.140;7.076;2023-01-29T00:57:33;1.80;99.90
15113;DHT22;7657;50.140;7.076;2023-01-29T01:00:00;1.80;99.90
15113;DHT22;7657;50.140;7.076;2023-01-29T01:02:28;1.80;99.90
15113;DHT22;7657;50.140;7.076;2023-01-29T01:05:14;1.70;99.90
15113;DHT22;7657;50.140;7.076;2023-01-29T01:07:43;1.70;99.90
15113;DHT22;7657;50.140;7.076;2023-01-29T01:10:15;1.80;99.90
15113;DHT22;7657;50.140;7.076;2023-01-29T01:12:49;1.70;99.90
15113;DHT22;7657;50.140;7.076;2023-01-29T01:15:16;1.80;99.90
15113;DHT22;7657;50.140;7.076;2023-01-29T01:17:44;1.70;99.90
15113;DHT22;7657;50.140;7.076;2023-01-29T01:20:13;1.80;99.90
15113;DHT22;7657;50.140;7.076;2023-01-29T01:22:40;1.90;99.90
15113;DHT22;7657;50.140;7.076;2023-01-29T01:25:08;1.90;99.90
15113;DHT22;7657;50.140;7.076;2023-01-29T01:27:36;2.00;99.90
15113;DHT22;7657;50.140;7.076;2023-01-29T01:30:08;2.00;99.90
15113;DHT22;7657;50.140;7.076;2023-01-29T01:32:37;2.00;99.90
15113;DHT22;7657;50.140;7.076;2023-01-29T01:35:05;1.90;99.90
15113;DHT22;7657;50.140;7.076;2023-01-29T01:37:32;1.90;99.90
15113;DHT22;7657;50.140;7.076;2023-01-29T01:40:02;2.00;99.90
15113;DHT22;7657;50.140;7.076;2023-01-29T01:42:30;2.00;99.90
15113;DHT22;7657;50.140;7.076;2023-01-29T01:45:00;2.00;99.90
15113;DHT22;7657;50.140;7.076;2023-01-29T01:47:34;2.10;99.90
15113;DHT22;7657;50.140;7.076;2023-01-29T01:50:05;2.10;99.90
15113;DHT22;7657;50.140;7.076;2023-01-29T01:52:34;2.10;99.90
15113;DHT22;7657;50.140;7.076;2023-01-29T01:55:03;2.10;99.90
15113;DHT22;7657;50.140;7.076;2023-01-29T01:57:30;2.10;99.90
15113;DHT22;7657;50.140;7.076;2023-01-29T02:00:04;2.10;99.90
15113;DHT22;7657;50.140;7.076;2023-01-29T02:02:36;2.00;99.90
15113;DHT22;7657;50.140;7.076;2023-01-29T02:05:21;2.00;99.90
15113;DHT22;7657;50.140;7.076;2023-01-29T02:08:05;1.90;99.90
15113;DHT22;7657;50.140;7.076;2023-01-29T02:10:49;1.70;99.90
15113;DHT22;7657;50.140;7.076;2023-01-29T02:13:17;1.70;99.90
15113;DHT22;7657;50.140;7.076;2023-01-29T02:15:46;1.70;99.90
15113;DHT22;7657;50.140;7.076;2023-01-29T02:18:14;1.60;99.90
15113;DHT22;7657;50.140;7.076;2023-01-29T02:20:48;1.70;99.90
15113;DHT22;7657;50.140;7.076;2023-01-29T02:26:38;1.60;99.90
15113;DHT22;7657;50.140;7.076;2023-01-29T02:29:09;1.40;99.90
15113;DHT22;7657;50.140;7.076;2023-01-29T02:32:00;1.30;99.90
15113;DHT22;7657;50.140;7.076;2023-01-29T02:34:37;1.30;99.90
15113;DHT22;7657;50.140;7.076;2023-01-29T02:37:25;1.40;99.90
15113;DHT22;7657;50.140;7.076;2023-01-29T02:40:00;1.30;99.90
15113;DHT22;7657;50.140;7.076;2023-01-29T02:42:34;1.40;99.90
15113;DHT22;7657;50.140;7.076;2023-01-29T02:45:09;1.30;99.90
15113;DHT22;7657;50.140;7.076;2023-01-29T02:47:41;1.20;99.90
15113;DHT22;7657;50.140;7.076;2023-01-29T02:50:15;1.20;99.90
15113;DHT22;7657;50.140;7.076;2023-01-29T02:52:46;1.20;99.90
15113;DHT22;7657;50.140;7.076;2023-01-29T02:55:24;1.20;99.90
15113;DHT22;7657;50.140;7.076;2023-01-29T02:57:55;1.20;99.90
15113;DHT22;7657;50.140;7.076;2023-01-29T03:00:27;1.30;99.90
15113;DHT22;7657;50.140;7.076;2023-01-29T03:02:58;1.30;99.90
15113;DHT22;7657;50.140;7.076;2023-01-29T03:05:30;1.30;99.90
15113;DHT22;7657;50.140;7.076;2023-01-29T03:08:01;1.40;99.90
15113;DHT22;7657;50.140;7.076;2023-01-29T03:10:34;1.50;99.90
15113;DHT22;7657;50.140;7.076;2023-01-29T03:13:06;1.50;99.90
15113;DHT22;7657;50.140;7.076;2023-01-29T03:15:40;1.50;99.90
15113;DHT22;7657;50.140;7.076;2023-01-29T03:18:13;1.50;99.90
15113;DHT22;7657;50.140;7.076;2023-01-29T03:20:44;1.30;99.90
15113;DHT22;7657;50.140;7.076;2023-01-29T03:23:15;1.00;99.90
15113;DHT22;7657;50.140;7.076;2023-01-29T03:25:53;1.00;99.90
15113;DHT22;7657;50.140;7.076;2023-01-29T03:28:44;1.00;99.90
15113;DHT22;7657;50.140;7.076;2023-01-29T03:31:31;0.90;99.90
15113;DHT22;7657;50.140;7.076;2023-01-29T03:34:19;0.70;99.90
15113;DHT22;7657;50.140;7.076;2023-01-29T03:36:52;0.50;99.90
15113;DHT22;7657;50.140;7.076;2023-01-29T03:39:21;0.40;99.90
15113;DHT22;7657;50.140;7.076;2023-01-29T03:41:53;0.40;99.90
15113;DHT22;7657;50.140;7.076;2023-01-29T03:44:27;0.50;99.90
15113;DHT22;7657;50.140;7.076;2023-01-29T03:47:02;0.60;99.90
15113;DHT22;7657;50.140;7.076;2023-01-29T03:49:38;0.60;99.90
15113;DHT22;7657;50.140;7.076;2023-01-29T03:52:17;0.40;99.90
15113;DHT22;7657;50.140;7.076;2023-01-29T03:54:52;0.40;99.90
15113;DHT22;7657;50.140;7.076;2023-01-29T03:57:30;0.20;99.90
15113;DHT22;7657;50.140;7.076;2023-01-29T04:00:05;0.20;99.90
15113;DHT22;7657;50.140;7.076;2023-01-29T04:02:41;0.40;99.90
15113;DHT22;7657;50.140;7.076;2023-01-29T04:05:11;0.50;99.90
15113;DHT22;7657;50.140;7.076;2023-01-29T04:07:39;0.70;99.90
15113;DHT22;7657;50.140;7.076;2023-01-29T04:10:11;0.50;99.90
15113;DHT22;7657;50.140;7.076;2023-01-29T04:12:44;0.20;99.90
15113;DHT22;7657;50.140;7.076;2023-01-29T04:15:14;0.30;99.90
15113;DHT22;7657;50.140;7.076;2023-01-29T04:17:47;0.30;99.90
15113;DHT22;7657;50.140;7.076;2023-01-29T04:20:16;0.30;99.90
15113;DHT22;7657;50.140;7.076;2023-01-29T04:22:45;0.30;99.90
15113;DHT22;7657;50.140;7.076;2023-01-29T04:25:15;0.20;99.90
15113;DHT22;7657;50.140;7.076;2023-01-29T04:27:48;0.20;99.90
15113;DHT22;7657;50.140;7.076;2023-01-29T04:30:27;0.10;99.90
15113;DHT22;7657;50.140;7.076;2023-01-29T04:33:10;-0.10;99.90
15113;DHT22;7657;50.140;7.076;2023-01-29T04:35:47;0.00;99.90
15113;DHT22;7657;50.140;7.076;2023-01-29T04:38:24;0.20;99.90
15113;DHT22;7657;50.140;7.076;2023-01-29T04:41:02;0.30;99.90
15113;DHT22;7657;50.140;7.076;2023-01-29T04:43:37;0.30;99.90
15113;DHT22;7657;50.140;7.076;2023-01-29T04:46:12;0.30;99.90
15113;DHT22;7657;50.140;7.076;2023-01-29T04:48:54;0.40;99.90
15113;DHT22;7657;50.140;7.076;2023-01-29T04:51:31;0.30;99.90
15113;DHT22;7657;50.140;7.076;2023-01-29T04:54:07;0.20;99.90
15113;DHT22;7657;50.140;7.076;2023-01-29T04:56:39;0.30;99.90
15113;DHT22;7657;50.140;7.076;2023-01-29T04:59:11;0.40;99.90
15113;DHT22;7657;50.140;7.076;2023-01-29T05:01:39;0.50;99.90
15113;DHT22;7657;50.140;7.076;2023-01-29T05:04:10;0.50;99.90
15113;DHT22;7657;50.140;7.076;2023-01-29T05:06:39;0.60;99.90
15113;DHT22;7657;50.140;7.076;2023-01-29T05:09:07;0.50;99.90
15113;DHT22;7657;50.140;7.076;2023-01-29T05:11:36;0.30;99.90
15113;DHT22;7657;50.140;7.076;2023-01-29T05:14:05;0.20;99.90
15113;DHT22;7657;50.140;7.076;2023-01-29T05:16:34;0.20;99.90
15113;DHT22;7657;50.140;7.076;2023-01-29T05:19:08;0.20;99.90
15113;DHT22;7657;50.140;7.076;2023-01-29T05:21:35;0.20;99.90
15113;DHT22;7657;50.140;7.076;2023-01-29T05:24:10;0.10;99.90
15113;DHT22;7657;50.140;7.076;2023-01-29T05:26:37;0.10;99.90
15113;DHT22;7657;50.140;7.076;2023-01-29T05:29:22;0.10;99.90
15113;DHT22;7657;50.140;7.076;2023-01-29T05:31:49;0.10;99.90
15113;DHT22;7657;50.140;7.076;2023-01-29T05:34:17;0.10;99.90
15113;DHT22;7657;50.140;7.076;2023-01-29T05:36:44;0.00;99.90
15113;DHT22;7657;50.140;7.076;2023-01-29T05:39:11;0.00;99.90
15113;DHT22;7657;50.140;7.076;2023-01-29T05:41:38;0.20;99.90
15113;DHT22;7657;50.140;7.076;2023-01-29T05:44:05;0.00;99.90
15113;DHT22;7657;50.140;7.076;2023-01-29T05:46:32;-0.10;99.90
15113;DHT22;7657;50.140;7.076;2023-01-29T05:48:58;0.10;99.90
15113;DHT22;7657;50.140;7.076;2023-01-29T05:51:27;0.10;99.90
15113;DHT22;7657;50.140;7.076;2023-01-29T05:53:54;-0.10;99.90
15113;DHT22;7657;50.140;7.076;2023-01-29T05:56:20;0.00;99.90
15113;DHT22;7657;50.140;7.076;2023-01-29T05:58:47;0.10;99.90
15113;DHT22;7657;50.140;7.076;2023-01-29T06:01:16;0.00;99.90
15113;DHT22;7657;50.140;7.076;2023-01-29T06:03:43;-0.30;99.90
15113;DHT22;7657;50.140;7.076;2023-01-29T06:06:11;-0.20;99.90
15113;DHT22;7657;50.140;7.076;2023-01-29T06:08:39;-0.10;99.90
15113;DHT22;7657;50.140;7.076;2023-01-29T06:11:08;-0.10;99.90
15113;DHT22;7657;50.140;7.076;2023-01-29T06:13:35;-0.40;99.90
15113;DHT22;7657;50.140;7.076;2023-01-29T06:16:04;-0.30;99.90
15113;DHT22;7657;50.140;7.076;2023-01-29T06:18:31;-0.50;99.90
15113;DHT22;7657;50.140;7.076;2023-01-29T06:20:59;-0.60;99.90
15113;DHT22;7657;50.140;7.076;2023-01-29T06:23:27;-0.40;99.90
15113;DHT22;7657;50.140;7.076;2023-01-29T06:25:58;-0.50;99.90
15113;DHT22;7657;50.140;7.076;2023-01-29T06:28:25;-0.40;99.90
15113;DHT22;7657;50.140;7.076;2023-01-29T06:30:52;-0.30;99.90
15113;DHT22;7657;50.140;7.076;2023-01-29T06:33:19;-0.30;99.90
15113;DHT22;7657;50.140;7.076;2023-01-29T06:35:45;-0.30;99.90
15113;DHT22;7657;50.140;7.076;2023-01-29T06:38:12;-0.10;99.90
15113;DHT22;7657;50.140;7.076;2023-01-29T06:40:39;-0.10;99.90
15113;DHT22;7657;50.140;7.076;2023-01-29T06:43:07;-0.10;99.90
15113;DHT22;7657;50.140;7.076;2023-01-29T06:45:34;-0.30;99.90
15113;DHT22;7657;50.140;7.076;2023-01-29T06:48:01;-0.50;99.90
15113;DHT22;7657;50.140;7.076;2023-01-29T06:50:28;-0.50;99.90
15113;DHT22;7657;50.140;7.076;2023-01-29T06:52:55;-0.60;99.90
15113;DHT22;7657;50.140;7.076;2023-01-29T06:55:22;-0.50;99.90
15113;DHT22;7657;50.140;7.076;2023-01-29T06:57:48;-0.30;99.90
15113;DHT22;7657;50.140;7.076;2023-01-29T07:00:17;-0.40;99.90
15113;DHT22;7657;50.140;7.076;2023-01-29T07:02:47;-0.60;99.90
15113;DHT22;7657;50.140;7.076;2023-01-29T07:05:14;-0.40;99.90
15113;DHT22;7657;50.140;7.076;2023-01-29T07:07:41;-0.40;99.90
15113;DHT22;7657;50.140;7.076;2023-01-29T07:10:09;-0.20;99.90
15113;DHT22;7657;50.140;7.076;2023-01-29T07:12:36;-0.30;99.90
15113;DHT22;7657;50.140;7.076;2023-01-29T07:15:03;-0.30;99.90
15113;DHT22;7657;50.140;7.076;2023-01-29T07:17:32;-0.70;99.90
15113;DHT22;7657;50.140;7.076;2023-01-29T07:19:59;-0.80;99.90
15113;DHT22;7657;50.140;7.076;2023-01-29T07:22:26;-0.60;99.90
15113;DHT22;7657;50.140;7.076;2023-01-29T07:24:52;-0.60;99.90
15113;DHT22;7657;50.140;7.076;2023-01-29T07:27:19;-0.70;99.90
15113;DHT22;7657;50.140;7.076;2023-01-29T07:29:46;-0.80;99.90
15113;DHT22;7657;50.140;7.076;2023-01-29T07:32:13;-0.60;99.90
15113;DHT22;7657;50.140;7.076;2023-01-29T07:34:41;-0.70;99.90
15113;DHT22;7657;50.140;7.076;2023-01-29T07:37:08;-0.70;99.90
15113;DHT22;7657;50.140;7.076;2023-01-29T07:39:35;-0.50;99.90
15113;DHT22;7657;50.140;7.076;2023-01-29T07:42:02;-0.50;99.90
15113;DHT22;7657;50.140;7.076;2023-01-29T07:44:29;-0.40;99.90
15113;DHT22;7657;50.140;7.076;2023-01-29T07:46:56;-0.50;99.90
15113;DHT22;7657;50.140;7.076;2023-01-29T07:49:23;-0.40;99.90
15113;DHT22;7657;50.140;7.076;2023-01-29T07:51:51;-0.50;99.90
15113;DHT22;7657;50.140;7.076;2023-01-29T07:54:18;-0.70;99.90
15113;DHT22;7657;50.140;7.076;2023-01-29T07:56:45;-0.60;99.90
15113;DHT22;7657;50.140;7.076;2023-01-29T07:59:12;-0.90;99.90
15113;DHT22;7657;50.140;7.076;2023-01-29T08:01:39;-1.00;99.90
15113;DHT22;7657;50.140;7.076;2023-01-29T08:04:06;-0.90;99.90
15113;DHT22;7657;50.140;7.076;2023-01-29T08:06:32;-0.80;99.90
15113;DHT22;7657;50.140;7.076;2023-01-29T08:09:01;-0.70;99.90
15113;DHT22;7657;50.140;7.076;2023-01-29T08:11:28;-1.00;99.90
15113;DHT22;7657;50.140;7.076;2023-01-29T08:13:55;-1.10;99.90
15113;DHT22;7657;50.140;7.076;2023-01-29T08:16:22;-0.90;99.90
15113;DHT22;7657;50.140;7.076;2023-01-29T08:18:49;-1.10;99.90
15113;DHT22;7657;50.140;7.076;2023-01-29T08:21:15;-1.30;99.90
15113;DHT22;7657;50.140;7.076;2023-01-29T08:23:42;-1.10;99.90
15113;DHT22;7657;50.140;7.076;2023-01-29T08:26:11;-1.30;99.90
15113;DHT22;7657;50.140;7.076;2023-01-29T08:28:37;-1.40;99.90
15113;DHT22;7657;50.140;7.076;2023-01-29T08:31:12;-1.20;99.90
15113;DHT22;7657;50.140;7.076;2023-01-29T08:33:39;-0.90;99.90
15113;DHT22;7657;50.140;7.076;2023-01-29T08:36:07;-0.80;99.90
15113;DHT22;7657;50.140;7.076;2023-01-29T08:38:34;-0.60;99.90
15113;DHT22;7657;50.140;7.076;2023-01-29T08:41:01;-0.40;99.90
15113;DHT22;7657;50.140;7.076;2023-01-29T08:43:29;-0.40;99.90
15113;DHT22;7657;50.140;7.076;2023-01-29T08:45:56;-0.40;99.90
15113;DHT22;7657;50.140;7.076;2023-01-29T08:48:23;-0.60;99.90
15113;DHT22;7657;50.140;7.076;2023-01-29T08:50:50;-0.50;99.90
15113;DHT22;7657;50.140;7.076;2023-01-29T08:53:17;-0.50;99.90
15113;DHT22;7657;50.140;7.076;2023-01-29T08:55:49;-0.80;99.90
15113;DHT22;7657;50.140;7.076;2023-01-29T08:58:15;-1.00;99.90
15113;DHT22;7657;50.140;7.076;2023-01-29T09:00:44;-0.90;99.90
15113;DHT22;7657;50.140;7.076;2023-01-29T09:03:11;-0.70;99.90
15113;DHT22;7657;50.140;7.076;2023-01-29T09:05:39;-0.80;99.90
15113;DHT22;7657;50.140;7.076;2023-01-29T09:08:06;-0.70;99.90
15113;DHT22;7657;50.140;7.076;2023-01-29T09:10:34;-0.60;99.90
15113;DHT22;7657;50.140;7.076;2023-01-29T09:13:01;-0.70;99.90
15113;DHT22;7657;50.140;7.076;2023-01-29T09:15:28;-0.60;99.90
15113;DHT22;7657;50.140;7.076;2023-01-29T09:17:57;-0.70;99.90
15113;DHT22;7657;50.140;7.076;2023-01-29T09:20:23;-0.70;99.90
15113;DHT22;7657;50.140;7.076;2023-01-29T09:22:50;-0.60;99.90
15113;DHT22;7657;50.140;7.076;2023-01-29T09:25:20;-0.60;99.90
15113;DHT22;7657;50.140;7.076;2023-01-29T09:27:47;-0.60;99.90
15113;DHT22;7657;50.140;7.076;2023-01-29T09:30:14;-0.50;99.90
15113;DHT22;7657;50.140;7.076;2023-01-29T09:32:41;-0.50;99.90
15113;DHT22;7657;50.140;7.076;2023-01-29T09:35:10;-0.50;99.90
15113;DHT22;7657;50.140;7.076;2023-01-29T09:37:36;-0.80;99.90
15113;DHT22;7657;50.140;7.076;2023-01-29T09:40:04;-0.70;99.90
15113;DHT22;7657;50.140;7.076;2023-01-29T09:42:37;-0.70;99.90
15113;DHT22;7657;50.140;7.076;2023-01-29T09:45:11;-0.50;99.90
15113;DHT22;7657;50.140;7.076;2023-01-29T09:47:40;-0.40;99.90
15113;DHT22;7657;50.140;7.076;2023-01-29T09:50:12;-0.50;99.90
15113;DHT22;7657;50.140;7.076;2023-01-29T09:52:44;-0.50;99.90
15113;DHT22;7657;50.140;7.076;2023-01-29T09:55:19;-0.40;99.90
15113;DHT22;7657;50.140;7.076;2023-01-29T09:57:50;-0.30;99.90
15113;DHT22;7657;50.140;7.076;2023-01-29T10:00:23;-0.40;99.90
15113;DHT22;7657;50.140;7.076;2023-01-29T10:03:03;-0.20;99.90
15113;DHT22;7657;50.140;7.076;2023-01-29T10:05:44;-0.30;99.90
15113;DHT22;7657;50.140;7.076;2023-01-29T10:08:43;-0.20;99.90
15113;DHT22;7657;50.140;7.076;2023-01-29T10:11:24;-0.20;99.90
15113;DHT22;7657;50.140;7.076;2023-01-29T10:14:03;0.10;99.90
15113;DHT22;7657;50.140;7.076;2023-01-29T10:16:44;0.20;99.90
15113;DHT22;7657;50.140;7.076;2023-01-29T10:19:40;0.10;99.90
15113;DHT22;7657;50.140;7.076;2023-01-29T10:22:29;0.10;99.90
15113;DHT22;7657;50.140;7.076;2023-01-29T10:25:01;0.20;99.90
15113;DHT22;7657;50.140;7.076;2023-01-29T10:27:32;0.30;99.90
15113;DHT22;7657;50.140;7.076;2023-01-29T10:30:01;0.50;99.90
15113;DHT22;7657;50.140;7.076;2023-01-29T10:32:31;0.60;99.90
15113;DHT22;7657;50.140;7.076;2023-01-29T10:35:03;0.50;99.90
15113;DHT22;7657;50.140;7.076;2023-01-29T10:37:36;0.30;99.90
15113;DHT22;7657;50.140;7.076;2023-01-29T10:40:17;0.30;99.90
15113;DHT22;7657;50.140;7.076;2023-01-29T10:42:49;0.40;99.90
15113;DHT22;7657;50.140;7.076;2023-01-29T10:45:27;0.60;99.90
15113;DHT22;7657;50.140;7.076;2023-01-29T10:48:24;0.80;99.90
15113;DHT22;7657;50.140;7.076;2023-01-29T10:51:02;0.90;99.90
15113;DHT22;7657;50.140;7.076;2023-01-29T10:53:43;0.90;99.90
15113;DHT22;7657;50.140;7.076;2023-01-29T10:56:25;0.70;99.90
15113;DHT22;7657;50.140;7.076;2023-01-29T10:58:58;0.80;99.90
15113;DHT22;7657;50.140;7.076;2023-01-29T11:01:25;0.60;99.90
15113;DHT22;7657;50.140;7.076;2023-01-29T11:03:56;0.40;99.90
15113;DHT22;7657;50.140;7.076;2023-01-29T11:06:28;0.60;99.90
15113;DHT22;7657;50.140;7.076;2023-01-29T11:09:03;0.80;99.90
15113;DHT22;7657;50.140;7.076;2023-01-29T11:11:35;0.80;99.90
15113;DHT22;7657;50.140;7.076;2023-01-29T11:14:08;0.90;99.90
15113;DHT22;7657;50.140;7.076;2023-01-29T11:16:40;0.80;99.90
15113;DHT22;7657;50.140;7.076;2023-01-29T11:19:08;0.50;99.90
15113;DHT22;7657;50.140;7.076;2023-01-29T11:21:52;0.70;99.90
15113;DHT22;7657;50.140;7.076;2023-01-29T11:24:23;0.40;99.90
15113;DHT22;7657;50.140;7.076;2023-01-29T11:26:53;0.20;99.90
15113;DHT22;7657;50.140;7.076;2023-01-29T11:29:34;0.20;99.90
15113;DHT22;7657;50.140;7.076;2023-01-29T11:32:04;0.10;99.90
15113;DHT22;7657;50.140;7.076;2023-01-29T11:34:32;0.10;99.90
15113;DHT22;7657;50.140;7.076;2023-01-29T11:37:00;0.10;99.90
15113;DHT22;7657;50.140;7.076;2023-01-29T11:39:30;0.10;99.90
15113;DHT22;7657;50.140;7.076;2023-01-29T11:41:58;0.20;99.90
15113;DHT22;7657;50.140;7.076;2023-01-29T11:44:30;0.30;99.90
15113;DHT22;7657;50.140;7.076;2023-01-29T11:47:16;0.40;99.90
15113;DHT22;7657;50.140;7.076;2023-01-29T11:49:46;0.30;99.90
15113;DHT22;7657;50.140;7.076;2023-01-29T11:52:16;0.30;99.90
15113;DHT22;7657;50.140;7.076;2023-01-29T11:54:49;0.40;99.90
15113;DHT22;7657;50.140;7.076;2023-01-29T11:57:23;0.50;99.90
15113;DHT22;7657;50.140;7.076;2023-01-29T11:59:53;0.60;99.90
15113;DHT22;7657;50.140;7.076;2023-01-29T12:02:24;0.70;99.90
15113;DHT22;7657;50.140;7.076;2023-01-29T12:04:53;0.90;99.90
15113;DHT22;7657;50.140;7.076;2023-01-29T12:07:21;0.90;99.90
15113;DHT22;7657;50.140;7.076;2023-01-29T12:09:52;1.10;99.90
15113;DHT22;7657;50.140;7.076;2023-01-29T12:12:36;1.10;99.90
15113;DHT22;7657;50.140;7.076;2023-01-29T12:15:21;1.40;99.90
15113;DHT22;7657;50.140;7.076;2023-01-29T12:18:01;1.40;99.90
15113;DHT22;7657;50.140;7.076;2023-01-29T12:20:34;1.40;99.90
15113;DHT22;7657;50.140;7.076;2023-01-29T12:23:10;1.50;99.90
15113;DHT22;7657;50.140;7.076;2023-01-29T12:25:49;1.70;99.90
15113;DHT22;7657;50.140;7.076;2023-01-29T12:28:32;1.80;99.90
15113;DHT22;7657;50.140;7.076;2023-01-29T12:31:10;1.90;99.90
15113;DHT22;7657;50.140;7.076;2023-01-29T12:33:45;2.00;99.90
15113;DHT22;7657;50.140;7.076;2023-01-29T12:36:20;2.00;99.90
15113;DHT22;7657;50.140;7.076;2023-01-29T12:38:50;2.10;99.90
15113;DHT22;7657;50.140;7.076;2023-01-29T12:41:29;2.00;99.90
15113;DHT22;7657;50.140;7.076;2023-01-29T12:44:01;2.00;99.90
15113;DHT22;7657;50.140;7.076;2023-01-29T12:46:32;2.00;99.90
15113;DHT22;7657;50.140;7.076;2023-01-29T12:49:02;2.00;99.90
15113;DHT22;7657;50.140;7.076;2023-01-29T12:51:35;2.00;99.90
15113;DHT22;7657;50.140;7.076;2023-01-29T12:54:06;2.10;99.90
15113;DHT22;7657;50.140;7.076;2023-01-29T12:56:38;2.00;99.90
15113;DHT22;7657;50.140;7.076;2023-01-29T12:59:13;2.00;99.90
15113;DHT22;7657;50.140;7.076;2023-01-29T13:01:45;2.00;99.90
15113;DHT22;7657;50.140;7.076;2023-01-29T13:04:20;2.00;99.90
15113;DHT22;7657;50.140;7.076;2023-01-29T13:06:53;1.90;99.90
15113;DHT22;7657;50.140;7.076;2023-01-29T13:09:26;2.00;99.90
15113;DHT22;7657;50.140;7.076;2023-01-29T13:11:58;2.00;99.90
15113;DHT22;7657;50.140;7.076;2023-01-29T13:14:34;1.70;99.90
15113;DHT22;7657;50.140;7.076;2023-01-29T13:17:08;1.60;99.90
15113;DHT22;7657;50.140;7.076;2023-01-29T13:19:40;1.80;99.90
15113;DHT22;7657;50.140;7.076;2023-01-29T13:22:15;1.70;99.90
15113;DHT22;7657;50.140;7.076;2023-01-29T13:24:43;1.60;99.90
15113;DHT22;7657;50.140;7.076;2023-01-29T13:27:20;1.70;99.90
15113;DHT22;7657;50.140;7.076;2023-01-29T13:29:48;1.50;99.90
15113;DHT22;7657;50.140;7.076;2023-01-29T13:32:20;1.60;99.90
15113;DHT22;7657;50.140;7.076;2023-01-29T13:34:48;1.70;99.90
15113;DHT22;7657;50.140;7.076;2023-01-29T13:37:19;1.60;99.90
15113;DHT22;7657;50.140;7.076;2023-01-29T13:39:50;1.60;99.90
15113;DHT22;7657;50.140;7.076;2023-01-29T13:42:22;1.50;99.90
15113;DHT22;7657;50.140;7.076;2023-01-29T13:44:50;1.40;99.90
15113;DHT22;7657;50.140;7.076;2023-01-29T13:47:24;1.50;99.90
15113;DHT22;7657;50.140;7.076;2023-01-29T13:49:55;1.20;99.90
15113;DHT22;7657;50.140;7.076;2023-01-29T13:52:29;1.10;99.90
15113;DHT22;7657;50.140;7.076;2023-01-29T13:54:59;1.00;99.90
15113;DHT22;7657;50.140;7.076;2023-01-29T13:57:51;0.80;99.90
15113;DHT22;7657;50.140;7.076;2023-01-29T14:03:52;0.70;99.90
15113;DHT22;7657;50.140;7.076;2023-01-29T14:06:42;0.60;99.90
15113;DHT22;7657;50.140;7.076;2023-01-29T14:12:37;1.00;99.90
15113;DHT22;7657;50.140;7.076;2023-01-29T14:15:21;0.80;99.90
15113;DHT22;7657;50.140;7.076;2023-01-29T14:18:14;0.60;99.90
15113;DHT22;7657;50.140;7.076;2023-01-29T14:20:51;0.50;99.90
15113;DHT22;7657;50.140;7.076;2023-01-29T14:23:23;0.60;99.90
15113;DHT22;7657;50.140;7.076;2023-01-29T14:25:53;0.70;99.90
15113;DHT22;7657;50.140;7.076;2023-01-29T14:28:23;0.60;99.90
15113;DHT22;7657;50.140;7.076;2023-01-29T14:30:51;0.60;99.90
15113;DHT22;7657;50.140;7.076;2023-01-29T14:33:25;0.70;99.90
15113;DHT22;7657;50.140;7.076;2023-01-29T14:35:55;0.70;99.90
15113;DHT22;7657;50.140;7.076;2023-01-29T14:38:26;0.60;99.90
15113;DHT22;7657;50.140;7.076;2023-01-29T14:41:04;0.60;99.90
15113;DHT22;7657;50.140;7.076;2023-01-29T14:43:34;0.70;99.90
15113;DHT22;7657;50.140;7.076;2023-01-29T14:49:06;1.00;99.90
15113;DHT22;7657;50.140;7.076;2023-01-29T14:51:35;0.90;99.90
15113;DHT22;7657;50.140;7.076;2023-01-29T14:54:11;1.00;99.90
15113;DHT22;7657;50.140;7.076;2023-01-29T14:56:42;1.10;99.90
15113;DHT22;7657;50.140;7.076;2023-01-29T14:59:18;1.10;99.90
15113;DHT22;7657;50.140;7.076;2023-01-29T15:01:47;1.10;99.90
15113;DHT22;7657;50.140;7.076;2023-01-29T15:04:21;1.10;99.90
15113;DHT22;7657;50.140;7.076;2023-01-29T15:06:53;1.20;99.90
15113;DHT22;7657;50.140;7.076;2023-01-29T15:09:30;1.20;99.90
15113;DHT22;7657;50.140;7.076;2023-01-29T15:12:04;0.90;99.90
15113;DHT22;7657;50.140;7.076;2023-01-29T15:14:35;0.90;99.90
15113;DHT22;7657;50.140;7.076;2023-01-29T15:17:20;0.80;99.90
15113;DHT22;7657;50.140;7.076;2023-01-29T15:19:48;0.70;99.90
15113;DHT22;7657;50.140;7.076;2023-01-29T15:22:16;0.70;99.90
15113;DHT22;7657;50.140;7.076;2023-01-29T15:24:45;0.60;99.90
15113;DHT22;7657;50.140;7.076;2023-01-29T15:27:14;0.50;99.90
15113;DHT22;7657;50.140;7.076;2023-01-29T15:29:55;0.50;99.90
15113;DHT22;7657;50.140;7.076;2023-01-29T15:32:26;0.50;99.90
15113;DHT22;7657;50.140;7.076;2023-01-29T15:34:57;0.30;99.90
15113;DHT22;7657;50.140;7.076;2023-01-29T15:37:30;0.30;99.90
15113;DHT22;7657;50.140;7.076;2023-01-29T15:39:59;0.20;99.90
15113;DHT22;7657;50.140;7.076;2023-01-29T15:42:27;0.30;99.90
15113;DHT22;7657;50.140;7.076;2023-01-29T15:44:56;0.40;99.90
15113;DHT22;7657;50.140;7.076;2023-01-29T15:47:25;0.50;99.90
15113;DHT22;7657;50.140;7.076;2023-01-29T15:49:54;0.60;99.90
15113;DHT22;7657;50.140;7.076;2023-01-29T15:52:26;0.40;99.90
15113;DHT22;7657;50.140;7.076;2023-01-29T15:54:55;0.30;99.90
15113;DHT22;7657;50.140;7.076;2023-01-29T15:57:27;0.20;99.90
15113;DHT22;7657;50.140;7.076;2023-01-29T15:59:57;0.20;99.90
15113;DHT22;7657;50.140;7.076;2023-01-29T16:02:36;0.10;99.90
15113;DHT22;7657;50.140;7.076;2023-01-29T16:05:05;0.20;99.90
15113;DHT22;7657;50.140;7.076;2023-01-29T16:07:34;0.00;99.90
15113;DHT22;7657;50.140;7.076;2023-01-29T16:10:02;0.00;99.90
15113;DHT22;7657;50.140;7.076;2023-01-29T16:12:31;-0.10;99.90
15113;DHT22;7657;50.140;7.076;2023-01-29T16:15:01;-0.10;99.90
15113;DHT22;7657;50.140;7.076;2023-01-29T16:17:30;-0.10;99.90
15113;DHT22;7657;50.140;7.076;2023-01-29T16:20:01;-0.20;99.90
15113;DHT22;7657;50.140;7.076;2023-01-29T16:22:30;-0.10;99.90
15113;DHT22;7657;50.140;7.076;2023-01-29T16:25:01;-0.10;99.90
15113;DHT22;7657;50.140;7.076;2023-01-29T16:27:29;0.00;99.90
15113;DHT22;7657;50.140;7.076;2023-01-29T16:29:58;-0.20;99.90
15113;DHT22;7657;50.140;7.076;2023-01-29T16:32:27;-0.20;99.90
15113;DHT22;7657;50.140;7.076;2023-01-29T16:34:56;-0.20;99.90
15113;DHT22;7657;50.140;7.076;2023-01-29T16:37:25;-0.20;99.90